createdAt,value
2022-08-16T00:02:33.059Z,95.04
2022-08-16T00:05:00.386Z,94.78
2022-08-16T00:07:29.246Z,94.77
2022-08-16T00:10:00.056Z,95.24
2022-08-16T00:12:30.682Z,94.74
2022-08-16T00:15:02.137Z,95.58
2022-08-16T00:17:28.788Z,95.09
2022-08-16T00:20:15.942Z,95.20
2022-08-16T00:22:48.276Z,94.85
2022-08-16T00:25:20.077Z,94.14
2022-08-16T00:28:07.160Z,94.61
2022-08-16T00:30:35.052Z,94.20
2022-08-16T00:33:02.785Z,94.45
2022-08-16T00:35:34.981Z,93.80
2022-08-16T00:38:40.148Z,94.28
2022-08-16T00:40:55.295Z,94.52
2022-08-16T00:43:40.876Z,94.76
2022-08-16T00:46:33.818Z,94.91
2022-08-16T00:49:06.827Z,95.22
2022-08-16T00:51:44.298Z,95.34
2022-08-16T00:54:12.239Z,95.06
2022-08-16T00:56:57.780Z,94.75
2022-08-16T00:59:28.982Z,94.51
2022-08-16T01:01:56.081Z,94.43
2022-08-16T01:04:30.633Z,94.86
2022-08-16T01:07:01.324Z,95.01
2022-08-16T01:09:42.945Z,95.27
2022-08-16T01:12:11.048Z,95.36
2022-08-16T01:14:56.678Z,95.07
2022-08-16T01:17:24.551Z,94.97
2022-08-16T01:19:58.654Z,95.57
2022-08-16T01:22:48.559Z,95.52
2022-08-16T01:25:22.523Z,95.52
2022-08-16T01:28:07.116Z,95.02
2022-08-16T01:30:40.173Z,95.55
2022-08-16T01:33:19.474Z,95.80
2022-08-16T01:35:54.170Z,95.66
2022-08-16T01:38:39.156Z,95.73
2022-08-16T01:41:10.081Z,95.55
2022-08-16T01:43:39.220Z,95.72
2022-08-16T01:46:37.700Z,96.07
2022-08-16T01:49:14.197Z,95.85
2022-08-16T01:51:43.977Z,95.19
2022-08-16T01:54:13.381Z,95.11
2022-08-16T01:56:52.018Z,95.13
2022-08-16T01:59:21.766Z,96.52
2022-08-16T02:01:59.459Z,96.34
2022-08-16T02:04:49.166Z,96.48
2022-08-16T02:07:18.624Z,96.04
2022-08-16T02:09:56.928Z,95.76
2022-08-16T02:12:49.709Z,95.74
2022-08-16T02:15:14.201Z,95.55
2022-08-16T02:17:41.571Z,95.04
2022-08-16T02:20:12.653Z,95.19
2022-08-16T02:22:39.317Z,95.11
2022-08-16T02:25:10.635Z,94.94
2022-08-16T02:27:39.968Z,95.33
2022-08-16T02:30:37.198Z,95.31
2022-08-16T02:33:03.127Z,95.44
2022-08-16T02:35:30.926Z,95.28
2022-08-16T02:38:01.591Z,96.21
2022-08-16T02:40:35.743Z,95.17
2022-08-16T02:43:02.705Z,96.11
2022-08-16T02:45:29.642Z,96.38
2022-08-16T02:48:01.808Z,97.84
2022-08-16T02:51:03.196Z,97.35
2022-08-16T02:53:31.028Z,95.97
2022-08-16T02:55:59.191Z,96.21
2022-08-16T02:58:27.708Z,96.00
2022-08-16T03:00:57.150Z,95.91
2022-08-16T03:03:26.563Z,96.60
2022-08-16T03:05:53.852Z,96.51
2022-08-16T03:08:52.186Z,96.20
2022-08-16T03:11:17.834Z,96.14
2022-08-16T03:13:56.585Z,94.49
2022-08-16T03:16:37.705Z,95.13
2022-08-16T03:19:08.336Z,94.54
2022-08-16T03:21:37.678Z,95.76
2022-08-16T03:24:29.425Z,95.10
2022-08-16T03:26:58.757Z,94.60
2022-08-16T03:29:30.256Z,94.76
2022-08-16T03:32:01.205Z,95.18
2022-08-16T03:34:30.103Z,95.64
2022-08-16T03:36:57.922Z,95.25
2022-08-16T03:39:24.705Z,95.88
2022-08-16T03:42:00.080Z,95.98
2022-08-16T03:44:44.404Z,96.14
2022-08-16T03:47:18.916Z,96.40
2022-08-16T03:49:51.574Z,96.84
2022-08-16T03:52:23.911Z,97.10
2022-08-16T03:54:59.439Z,97.12
2022-08-16T03:57:32.111Z,96.36
2022-08-16T04:00:20.476Z,95.92
2022-08-16T04:03:07.660Z,95.62
2022-08-16T04:05:47.231Z,95.21
2022-08-16T04:08:22.852Z,95.36
2022-08-16T04:10:55.277Z,94.48
2022-08-16T04:14:01.682Z,93.73
2022-08-16T04:16:27.590Z,94.99
2022-08-16T04:19:04.785Z,94.00
2022-08-16T04:21:34.541Z,94.00
2022-08-16T04:24:02.823Z,93.77
2022-08-16T04:26:30.905Z,93.86
2022-08-16T04:29:14.960Z,94.06
2022-08-16T04:31:56.628Z,93.13
2022-08-16T04:34:30.612Z,93.57
2022-08-16T04:37:01.453Z,93.59
2022-08-16T04:39:44.905Z,86.38
2022-08-16T04:42:18.869Z,85.05
2022-08-16T04:44:56.055Z,82.83
2022-08-16T04:47:31.408Z,78.95
2022-08-16T04:49:59.958Z,77.93
2022-08-16T04:52:34.438Z,74.96
2022-08-16T04:55:09.822Z,70.64
2022-08-16T04:57:39.314Z,71.54
2022-08-16T05:00:30.522Z,69.23
2022-08-16T05:03:10.253Z,67.47
2022-08-16T05:05:59.587Z,66.70
2022-08-16T05:08:31.005Z,65.38
2022-08-16T05:11:12.369Z,63.76
2022-08-16T05:13:43.042Z,61.01
2022-08-16T05:16:21.683Z,61.33
2022-08-16T05:18:56.871Z,57.82
2022-08-16T05:21:28.308Z,58.22
2022-08-16T05:24:02.837Z,56.26
2022-08-16T05:26:33.236Z,57.64
2022-08-16T05:29:03.533Z,54.14
2022-08-16T05:31:31.529Z,53.52
2022-08-16T05:34:03.186Z,54.23
2022-08-16T05:36:33.788Z,53.57
2022-08-16T05:39:03.845Z,53.89
2022-08-16T05:41:30.792Z,54.79
2022-08-16T05:44:01.235Z,53.03
2022-08-16T05:46:43.580Z,52.66
2022-08-16T05:49:22.256Z,52.25
2022-08-16T05:51:52.938Z,50.80
2022-08-16T05:54:20.297Z,52.35
2022-08-16T05:56:57.336Z,48.24
2022-08-16T05:59:26.939Z,49.64
2022-08-16T06:01:55.049Z,51.00
2022-08-16T06:04:36.264Z,46.04
2022-08-16T06:07:08.904Z,51.91
2022-08-16T06:09:43.523Z,53.29
2022-08-16T06:12:27.022Z,50.97
2022-08-16T06:14:59.140Z,50.88
2022-08-16T06:17:41.447Z,53.30
2022-08-16T06:20:34.660Z,48.02
2022-08-16T06:23:11.790Z,48.63
2022-08-16T06:25:57.277Z,49.50
2022-08-16T06:31:11.714Z,51.42
2022-08-16T06:33:41.933Z,51.28
2022-08-16T06:36:14.259Z,54.60
2022-08-16T06:38:55.419Z,56.53
2022-08-16T06:41:39.637Z,58.88
2022-08-16T06:44:21.409Z,56.99
2022-08-16T06:46:54.792Z,56.41
2022-08-16T06:49:22.496Z,55.71
2022-08-16T06:51:49.489Z,56.32
2022-08-16T06:54:22.709Z,58.67
2022-08-16T06:56:52.431Z,57.68
2022-08-16T06:59:25.833Z,56.39
2022-08-16T07:01:58.380Z,59.29
2022-08-16T07:04:32.026Z,56.80
2022-08-16T07:07:05.971Z,56.98
2022-08-16T07:09:33.008Z,59.99
2022-08-16T07:12:03.522Z,59.26
2022-08-16T07:14:35.134Z,58.91
2022-08-16T07:17:08.260Z,57.82
2022-08-16T07:20:29.358Z,57.42
2022-08-16T07:22:39.866Z,59.21
2022-08-16T07:25:18.849Z,59.27
2022-08-16T07:27:49.625Z,58.70
2022-08-16T07:30:46.122Z,59.62
2022-08-16T07:33:09.741Z,59.57
2022-08-16T07:35:44.404Z,57.90
2022-08-16T07:38:19.800Z,56.86
2022-08-16T07:40:59.708Z,60.77
2022-08-16T07:43:29.676Z,57.81
2022-08-16T07:46:01.285Z,57.93
2022-08-16T07:48:29.131Z,57.43
2022-08-16T07:50:59.237Z,57.54
2022-08-16T07:53:30.443Z,58.62
2022-08-16T07:56:00.552Z,59.61
2022-08-16T07:58:36.210Z,57.17
2022-08-16T08:01:10.741Z,56.99
2022-08-16T08:03:48.988Z,56.72
2022-08-16T08:06:22.777Z,56.60
2022-08-16T08:08:56.994Z,55.41
2022-08-16T08:11:25.275Z,53.01
2022-08-16T08:13:57.654Z,53.42
2022-08-16T08:16:32.646Z,52.84
2022-08-16T08:19:02.824Z,53.49
2022-08-16T08:21:58.893Z,52.65
2022-08-16T08:24:31.536Z,51.25
2022-08-16T08:27:02.474Z,52.28
2022-08-16T08:29:37.352Z,51.28
2022-08-16T08:32:58.122Z,52.53
2022-08-16T08:35:00.518Z,51.15
2022-08-16T08:37:41.717Z,50.71
2022-08-16T08:40:24.677Z,51.47
2022-08-16T08:42:57.631Z,51.33
2022-08-16T08:45:46.808Z,51.05
2022-08-16T08:48:32.914Z,50.73
2022-08-16T08:51:04.341Z,50.50
2022-08-16T08:53:33.668Z,51.30
2022-08-16T08:56:01.474Z,50.09
2022-08-16T08:58:54.791Z,49.41
2022-08-16T09:01:42.527Z,49.70
2022-08-16T09:04:14.722Z,49.55
2022-08-16T09:06:45.606Z,48.06
2022-08-16T09:09:16.855Z,48.67
2022-08-16T09:11:53.524Z,47.39
2022-08-16T09:14:35.437Z,46.65
2022-08-16T09:17:11.703Z,48.04
2022-08-16T09:19:44.327Z,48.35
2022-08-16T09:22:20.053Z,46.41
2022-08-16T09:24:52.759Z,45.86
2022-08-16T09:27:23.557Z,45.40
2022-08-16T09:30:00.126Z,45.75
2022-08-16T09:32:31.167Z,45.88
2022-08-16T09:34:59.849Z,44.80
2022-08-16T09:37:29.871Z,45.66
2022-08-16T09:40:00.936Z,44.55
2022-08-16T09:42:29.710Z,45.47
2022-08-16T09:45:13.191Z,44.88
2022-08-16T09:47:56.430Z,43.33
2022-08-16T09:50:37.075Z,43.60
2022-08-16T09:53:15.574Z,41.70
2022-08-16T09:55:48.995Z,43.55
2022-08-16T09:58:37.869Z,43.83
2022-08-16T10:01:03.534Z,43.26
2022-08-16T10:03:31.804Z,42.47
2022-08-16T10:05:58.573Z,42.60
2022-08-16T10:08:27.482Z,41.61
2022-08-16T10:11:13.104Z,41.92
2022-08-16T10:13:43.764Z,41.89
2022-08-16T10:19:01.394Z,40.97
2022-08-16T10:21:29.614Z,41.11
2022-08-16T10:23:58.708Z,41.31
2022-08-16T10:27:17.873Z,40.58
2022-08-16T10:29:11.916Z,40.82
2022-08-16T10:31:53.493Z,42.40
2022-08-16T10:34:31.872Z,41.17
2022-08-16T10:37:00.500Z,40.80
2022-08-16T10:39:40.929Z,39.82
2022-08-16T10:42:10.561Z,40.19
2022-08-16T10:44:40.081Z,39.59
2022-08-16T10:47:09.588Z,39.24
2022-08-16T10:49:39.033Z,40.02
2022-08-16T10:52:17.963Z,39.66
2022-08-16T10:55:40.768Z,39.55
2022-08-16T10:57:32.968Z,37.61
2022-08-16T11:00:00.024Z,38.75
2022-08-16T11:02:58.566Z,39.64
2022-08-16T11:05:17.109Z,40.52
2022-08-16T11:07:52.115Z,40.51
2022-08-16T11:19:05.498Z,38.44
2022-08-16T11:21:37.407Z,38.94
2022-08-16T11:24:05.012Z,38.78
2022-08-16T11:27:18.431Z,36.40
2022-08-16T11:29:39.184Z,37.21
2022-08-16T11:32:07.616Z,36.32
2022-08-16T11:35:05.792Z,36.99
2022-08-16T11:37:27.514Z,37.43
2022-08-16T11:40:02.620Z,37.51
2022-08-16T11:42:32.177Z,37.11
2022-08-16T11:45:00.983Z,36.35
2022-08-16T11:47:28.662Z,36.17
2022-08-16T11:49:55.186Z,35.82
2022-08-16T11:52:23.745Z,35.30
2022-08-16T11:54:57.040Z,35.22
2022-08-16T11:57:26.585Z,34.60
2022-08-16T11:59:54.951Z,34.94
2022-08-16T12:02:32.584Z,35.90
2022-08-16T12:04:59.796Z,36.89
2022-08-16T12:07:27.822Z,37.39
2022-08-16T12:09:55.129Z,37.62
2022-08-16T12:12:23.567Z,37.72
2022-08-16T12:14:59.199Z,38.36
2022-08-16T12:17:31.914Z,38.23
2022-08-16T12:20:00.522Z,39.10
2022-08-16T12:22:27.745Z,37.86
2022-08-16T12:24:54.368Z,38.13
2022-08-16T12:27:23.907Z,38.65
2022-08-16T12:29:54.430Z,39.16
2022-08-16T12:32:38.236Z,38.98
2022-08-16T12:35:10.110Z,38.34
2022-08-16T12:37:37.014Z,36.93
2022-08-16T12:40:21.244Z,37.47
2022-08-16T12:42:54.761Z,37.74
2022-08-16T12:45:27.876Z,36.80
2022-08-16T12:48:34.534Z,38.63
2022-08-16T12:51:01.103Z,37.78
2022-08-16T12:53:32.085Z,37.88
2022-08-16T12:55:59.473Z,36.80
2022-08-16T12:58:49.500Z,36.22
2022-08-16T13:01:14.838Z,36.69
2022-08-16T13:03:42.135Z,36.64
2022-08-16T13:06:09.880Z,37.29
2022-08-16T13:08:39.670Z,37.17
2022-08-16T13:11:07.645Z,36.48
2022-08-16T13:13:35.322Z,35.01
2022-08-16T13:16:15.140Z,34.33
2022-08-16T13:18:42.540Z,34.81
2022-08-16T13:21:10.571Z,34.08
2022-08-16T13:23:43.548Z,33.83
2022-08-16T13:26:10.739Z,33.82
2022-08-16T13:28:37.263Z,33.61
2022-08-16T13:31:04.150Z,33.39
2022-08-16T13:33:36.996Z,34.28
2022-08-16T13:36:17.097Z,32.95
2022-08-16T13:38:55.372Z,32.70
2022-08-16T13:41:23.880Z,32.68
2022-08-16T13:43:57.904Z,33.22
2022-08-16T13:46:26.832Z,32.20
2022-08-16T13:48:53.445Z,32.97
2022-08-16T13:51:23.699Z,31.71
2022-08-16T13:53:59.351Z,31.33
2022-08-16T13:56:38.161Z,31.26
2022-08-16T13:59:19.326Z,31.99
2022-08-16T14:01:55.243Z,31.51
2022-08-16T14:04:27.436Z,32.59
2022-08-16T14:06:56.374Z,32.35
2022-08-16T14:09:23.977Z,33.21
2022-08-16T14:11:53.379Z,33.23
2022-08-16T14:14:28.354Z,32.03
2022-08-16T14:16:56.071Z,32.00
2022-08-16T14:19:22.901Z,32.30
2022-08-16T14:22:13.350Z,33.38
2022-08-16T14:24:36.904Z,33.04
2022-08-16T14:27:04.784Z,33.06
2022-08-16T14:29:32.260Z,32.95
2022-08-16T14:32:05.338Z,33.85
2022-08-16T14:34:32.047Z,33.81
2022-08-16T14:36:59.595Z,33.97
2022-08-16T14:39:26.576Z,33.85
2022-08-16T14:41:53.637Z,33.08
2022-08-16T14:44:23.080Z,34.55
2022-08-16T14:46:49.765Z,34.52
2022-08-16T14:49:19.354Z,35.21
2022-08-16T14:51:46.361Z,35.41
2022-08-16T14:54:15.199Z,34.97
2022-08-16T14:56:54.412Z,35.34
2022-08-16T14:59:21.935Z,34.44
2022-08-16T15:01:59.255Z,34.27
2022-08-16T15:04:32.550Z,34.57
2022-08-16T15:07:06.770Z,34.39
2022-08-16T15:09:44.330Z,33.92
2022-08-16T15:12:26.974Z,34.25
2022-08-16T15:14:58.130Z,34.92
2022-08-16T15:17:27.673Z,34.78
2022-08-16T15:20:01.128Z,35.13
2022-08-16T15:22:30.693Z,35.95
2022-08-16T15:25:06.071Z,34.91
2022-08-16T15:27:36.875Z,34.84
2022-08-16T15:30:45.733Z,34.42
2022-08-16T15:33:00.087Z,35.37
2022-08-16T15:35:26.749Z,36.04
2022-08-16T15:37:56.634Z,35.24
2022-08-16T15:40:32.572Z,34.99
2022-08-16T15:43:02.897Z,35.22
2022-08-16T15:45:55.605Z,34.52
2022-08-16T15:48:29.161Z,34.39
2022-08-16T15:50:59.051Z,35.24
2022-08-16T15:53:30.679Z,34.46
2022-08-16T15:55:59.436Z,34.65
2022-08-16T15:58:34.517Z,34.41
2022-08-16T16:01:04.388Z,35.56
2022-08-16T16:03:34.648Z,36.38
2022-08-16T16:06:02.691Z,35.08
2022-08-16T16:08:30.982Z,35.97
2022-08-16T16:11:01.577Z,35.63
2022-08-16T16:13:30.505Z,35.82
2022-08-16T16:16:00.442Z,35.77
2022-08-16T16:18:29.897Z,37.08
2022-08-16T16:21:00.844Z,36.11
2022-08-16T16:23:31.233Z,36.57
2022-08-16T16:25:58.563Z,36.81
2022-08-16T16:29:07.403Z,38.18
2022-08-16T16:31:17.955Z,37.80
2022-08-16T16:33:47.784Z,37.34
2022-08-16T16:36:19.222Z,38.15
2022-08-16T16:38:47.543Z,38.78
2022-08-16T16:41:17.041Z,39.04
2022-08-16T16:43:44.915Z,39.28
2022-08-16T16:46:42.630Z,39.95
2022-08-16T16:49:04.059Z,40.33
2022-08-16T16:51:31.307Z,39.38
2022-08-16T16:54:01.103Z,40.15
2022-08-16T16:56:31.236Z,40.20
2022-08-16T16:59:06.989Z,40.36
2022-08-16T17:01:59.584Z,40.30
2022-08-16T17:04:34.005Z,39.90
2022-08-16T17:07:01.840Z,40.91
2022-08-16T17:09:29.483Z,40.98
2022-08-16T17:11:57.089Z,40.68
2022-08-16T17:14:33.180Z,42.90
2022-08-16T17:17:07.069Z,43.15
2022-08-16T17:19:40.158Z,43.60
2022-08-16T17:22:14.044Z,43.98
2022-08-16T17:24:45.380Z,44.18
2022-08-16T17:27:18.380Z,44.44
2022-08-16T17:29:58.690Z,44.57
2022-08-16T17:32:33.537Z,44.77
2022-08-16T17:35:18.464Z,45.49
2022-08-16T17:37:51.228Z,45.38
2022-08-16T17:40:40.875Z,45.15
2022-08-16T17:43:12.517Z,45.66
2022-08-16T17:45:40.546Z,45.69
2022-08-16T17:48:07.652Z,44.48
2022-08-16T17:50:34.559Z,45.95
2022-08-16T17:53:03.199Z,46.28
2022-08-16T17:55:36.673Z,46.51
2022-08-16T17:58:23.131Z,46.86
2022-08-16T18:00:52.205Z,47.35
2022-08-16T18:04:03.197Z,47.77
2022-08-16T18:06:16.607Z,48.01
2022-08-16T18:08:43.498Z,48.61
2022-08-16T18:11:12.760Z,49.19
2022-08-16T18:13:43.184Z,49.67
2022-08-16T18:16:11.298Z,49.65
2022-08-16T18:18:37.908Z,49.98
2022-08-16T18:21:23.048Z,50.00
2022-08-16T18:23:49.558Z,50.36
2022-08-16T18:26:16.111Z,50.30
2022-08-16T18:28:42.635Z,50.35
2022-08-16T18:31:09.390Z,50.83
2022-08-16T18:33:43.290Z,51.13
2022-08-16T18:36:21.172Z,50.99
2022-08-16T18:38:49.527Z,51.42
2022-08-16T18:41:16.429Z,51.83
2022-08-16T18:44:22.587Z,51.92
2022-08-16T18:46:29.470Z,52.56
2022-08-16T18:48:55.866Z,53.38
2022-08-16T18:51:25.160Z,53.23
2022-08-16T18:53:52.481Z,53.88
2022-08-16T18:56:19.032Z,54.05
2022-08-16T18:58:45.397Z,54.25
2022-08-16T19:01:11.962Z,54.44
2022-08-16T19:03:38.352Z,54.75
2022-08-16T19:06:13.525Z,55.22
2022-08-16T19:08:41.895Z,55.42
2022-08-16T19:11:13.960Z,55.97
2022-08-16T19:13:44.211Z,56.09
2022-08-16T19:16:12.639Z,56.69
2022-08-16T19:18:39.577Z,56.97
2022-08-16T19:21:07.133Z,56.72
2022-08-16T19:23:37.306Z,56.88
2022-08-16T19:26:24.552Z,57.67
2022-08-16T19:28:58.829Z,58.37
2022-08-16T19:31:30.966Z,58.65
2022-08-16T19:33:58.099Z,58.57
2022-08-16T19:36:35.522Z,59.25
2022-08-16T19:39:08.626Z,59.45
2022-08-16T19:41:37.942Z,59.45
2022-08-16T19:44:05.612Z,59.40
2022-08-16T19:46:32.214Z,59.56
2022-08-16T19:48:58.694Z,59.82
2022-08-16T19:51:25.371Z,60.23
2022-08-16T19:53:51.753Z,60.66
2022-08-16T19:56:18.724Z,61.38
2022-08-16T19:59:08.781Z,61.41
2022-08-16T20:01:32.407Z,62.14
2022-08-16T20:03:58.849Z,62.04
2022-08-16T20:06:38.170Z,62.21
2022-08-16T20:09:05.585Z,62.48
2022-08-16T20:11:32.420Z,62.95
2022-08-16T20:13:59.444Z,62.77
2022-08-16T20:16:26.147Z,63.13
2022-08-16T20:18:52.548Z,63.49
2022-08-16T20:21:19.444Z,63.45
2022-08-16T20:23:46.246Z,62.76
2022-08-16T20:26:12.859Z,62.95
2022-08-16T20:28:52.393Z,62.82
2022-08-16T20:31:24.308Z,62.68
2022-08-16T20:33:52.647Z,62.91
2022-08-16T20:36:19.268Z,63.21
2022-08-16T20:38:47.460Z,64.06
2022-08-16T20:41:14.535Z,64.13
2022-08-16T20:43:41.081Z,64.26
2022-08-16T20:46:07.919Z,64.23
2022-08-16T20:48:34.587Z,64.70
2022-08-16T20:51:01.055Z,64.28
2022-08-16T20:53:27.586Z,64.62
2022-08-16T20:55:54.545Z,64.31
2022-08-16T20:58:21.119Z,64.23
2022-08-16T21:00:47.762Z,64.58
2022-08-16T21:03:14.412Z,64.94
2022-08-16T21:05:41.125Z,64.99
2022-08-16T21:08:32.817Z,65.38
2022-08-16T21:10:56.359Z,65.48
2022-08-16T21:13:25.587Z,65.68
2022-08-16T21:15:52.580Z,66.02
2022-08-16T21:18:19.083Z,66.27
2022-08-16T21:20:45.685Z,66.66
2022-08-16T21:23:12.108Z,67.22
2022-08-16T21:25:58.300Z,67.70
2022-08-16T21:28:38.819Z,67.01
2022-08-16T21:31:09.133Z,67.64
2022-08-16T21:33:36.025Z,67.86
2022-08-16T21:36:02.542Z,68.40
2022-08-16T21:38:30.885Z,68.72
2022-08-16T21:40:59.765Z,68.76
2022-08-16T21:43:28.706Z,69.08
2022-08-16T21:45:55.929Z,69.34
2022-08-16T21:48:34.129Z,69.25
2022-08-16T21:51:05.837Z,69.43
2022-08-16T21:53:32.657Z,69.55
2022-08-16T21:56:00.635Z,69.98
2022-08-16T21:58:27.689Z,69.63
2022-08-16T22:02:41.642Z,70.60
2022-08-16T22:05:08.408Z,70.83
2022-08-16T22:07:35.098Z,71.18
2022-08-16T22:11:04.206Z,71.74
2022-08-16T22:12:48.763Z,71.71
2022-08-16T22:15:15.667Z,71.84
2022-08-16T22:17:43.095Z,72.15
2022-08-16T22:20:10.870Z,71.55
2022-08-16T22:22:37.965Z,71.27
2022-08-16T22:25:04.911Z,71.88
2022-08-16T22:27:31.465Z,72.08
2022-08-16T22:29:58.445Z,72.19
2022-08-16T22:32:26.142Z,72.26
2022-08-16T22:34:53.691Z,71.88
2022-08-16T22:37:25.981Z,71.90
2022-08-16T22:39:52.623Z,71.90
2022-08-16T22:42:19.677Z,72.02
2022-08-16T22:44:46.624Z,72.23
2022-08-16T22:47:14.592Z,72.96
2022-08-16T22:49:41.205Z,72.81
2022-08-16T22:52:09.553Z,73.10
2022-08-16T22:54:48.068Z,73.08
2022-08-16T22:57:15.500Z,73.15
2022-08-16T22:59:41.969Z,73.51
2022-08-16T23:02:09.889Z,73.46
2022-08-16T23:04:36.757Z,73.43
2022-08-16T23:07:03.627Z,73.42
2022-08-16T23:09:32.062Z,74.18
2022-08-16T23:12:03.716Z,75.11
2022-08-16T23:14:30.248Z,74.93
2022-08-16T23:16:56.708Z,75.30
2022-08-16T23:19:23.336Z,75.27
2022-08-16T23:21:50.238Z,75.45
2022-08-16T23:24:20.227Z,75.55
2022-08-16T23:26:49.108Z,75.49
2022-08-16T23:29:23.475Z,75.36
2022-08-16T23:31:58.650Z,75.56
2022-08-16T23:34:28.035Z,75.63
2022-08-16T23:36:55.190Z,75.85
2022-08-16T23:39:21.934Z,75.68
2022-08-16T23:41:48.443Z,75.67
2022-08-16T23:44:55.291Z,75.69
2022-08-16T23:47:01.554Z,75.41
2022-08-16T23:50:01.796Z,75.35
2022-08-16T23:52:14.522Z,75.76
2022-08-16T23:54:41.125Z,76.06
2022-08-16T23:57:08.368Z,75.95
2022-08-16T23:59:37.487Z,75.88
